sensor_id;sensor_type;location;lat;lon;timestamp;P1;durP1;ratioP1;P2;durP2;ratioP2
16506;SDS011;8366;51.020;7.642;2023-05-10T00:00:18;0.20;;;0.20;;
16506;SDS011;8366;51.020;7.642;2023-05-10T00:02:46;0.20;;;0.20;;
16506;SDS011;8366;51.020;7.642;2023-05-10T00:05:13;0.20;;;0.20;;
16506;SDS011;8366;51.020;7.642;2023-05-10T00:07:39;0.20;;;0.20;;
16506;SDS011;8366;51.020;7.642;2023-05-10T00:10:09;0.15;;;0.15;;
16506;SDS011;8366;51.020;7.642;2023-05-10T00:12:36;0.30;;;0.30;;
16506;SDS011;8366;51.020;7.642;2023-05-10T00:15:03;0.20;;;0.20;;
16506;SDS011;8366;51.020;7.642;2023-05-10T00:17:29;0.93;;;0.60;;
16506;SDS011;8366;51.020;7.642;2023-05-10T00:19:57;0.35;;;0.35;;
16506;SDS011;8366;51.020;7.642;2023-05-10T00:22:23;0.20;;;0.20;;
16506;SDS011;8366;51.020;7.642;2023-05-10T00:24:49;0.20;;;0.20;;
16506;SDS011;8366;51.020;7.642;2023-05-10T00:27:16;0.10;;;0.10;;
16506;SDS011;8366;51.020;7.642;2023-05-10T00:29:42;0.10;;;0.10;;
16506;SDS011;8366;51.020;7.642;2023-05-10T00:32:08;0.20;;;0.20;;
16506;SDS011;8366;51.020;7.642;2023-05-10T00:34:35;0.40;;;0.40;;
16506;SDS011;8366;51.020;7.642;2023-05-10T00:37:02;0.25;;;0.25;;
16506;SDS011;8366;51.020;7.642;2023-05-10T00:39:29;0.30;;;0.30;;
16506;SDS011;8366;51.020;7.642;2023-05-10T00:41:55;0.20;;;0.20;;
16506;SDS011;8366;51.020;7.642;2023-05-10T00:44:21;0.73;;;0.73;;
16506;SDS011;8366;51.020;7.642;2023-05-10T00:46:48;0.20;;;0.20;;
16506;SDS011;8366;51.020;7.642;2023-05-10T00:49:14;0.20;;;0.20;;
16506;SDS011;8366;51.020;7.642;2023-05-10T00:51:41;0.73;;;0.73;;
16506;SDS011;8366;51.020;7.642;2023-05-10T00:54:09;0.10;;;0.10;;
16506;SDS011;8366;51.020;7.642;2023-05-10T00:56:36;0.10;;;0.10;;
16506;SDS011;8366;51.020;7.642;2023-05-10T00:59:02;0.20;;;0.20;;
16506;SDS011;8366;51.020;7.642;2023-05-10T01:01:29;0.20;;;0.20;;
16506;SDS011;8366;51.020;7.642;2023-05-10T01:03:55;0.20;;;0.20;;
16506;SDS011;8366;51.020;7.642;2023-05-10T01:06:22;0.17;;;0.17;;
16506;SDS011;8366;51.020;7.642;2023-05-10T01:08:48;0.30;;;0.30;;
16506;SDS011;8366;51.020;7.642;2023-05-10T01:11:16;0.13;;;0.13;;
16506;SDS011;8366;51.020;7.642;2023-05-10T01:13:42;0.20;;;0.20;;
16506;SDS011;8366;51.020;7.642;2023-05-10T01:16:09;0.47;;;0.47;;
16506;SDS011;8366;51.020;7.642;2023-05-10T01:18:36;0.15;;;0.15;;
16506;SDS011;8366;51.020;7.642;2023-05-10T01:21:19;0.45;;;0.30;;
16506;SDS011;8366;51.020;7.642;2023-05-10T01:23:56;0.15;;;0.15;;
16506;SDS011;8366;51.020;7.642;2023-05-10T01:26:36;0.30;;;0.30;;
16506;SDS011;8366;51.020;7.642;2023-05-10T01:29:11;0.20;;;0.20;;
16506;SDS011;8366;51.020;7.642;2023-05-10T01:34:23;0.20;;;0.20;;
16506;SDS011;8366;51.020;7.642;2023-05-10T01:36:53;0.15;;;0.13;;
16506;SDS011;8366;51.020;7.642;2023-05-10T01:39:23;0.47;;;0.47;;
16506;SDS011;8366;51.020;7.642;2023-05-10T01:41:51;0.30;;;0.30;;
16506;SDS011;8366;51.020;7.642;2023-05-10T01:44:20;0.20;;;0.20;;
16506;SDS011;8366;51.020;7.642;2023-05-10T01:46:51;0.63;;;0.40;;
16506;SDS011;8366;51.020;7.642;2023-05-10T01:49:21;0.20;;;0.20;;
16506;SDS011;8366;51.020;7.642;2023-05-10T01:51:50;0.20;;;0.20;;
16506;SDS011;8366;51.020;7.642;2023-05-10T01:54:19;0.47;;;0.47;;
16506;SDS011;8366;51.020;7.642;2023-05-10T01:56:46;0.20;;;0.20;;
16506;SDS011;8366;51.020;7.642;2023-05-10T01:59:15;0.20;;;0.20;;
16506;SDS011;8366;51.020;7.642;2023-05-10T02:01:42;0.20;;;0.20;;
16506;SDS011;8366;51.020;7.642;2023-05-10T02:04:10;0.68;;;0.25;;
16506;SDS011;8366;51.020;7.642;2023-05-10T02:06:37;0.50;;;0.50;;
16506;SDS011;8366;51.020;7.642;2023-05-10T02:09:05;0.20;;;0.20;;
16506;SDS011;8366;51.020;7.642;2023-05-10T02:11:32;0.63;;;0.43;;
16506;SDS011;8366;51.020;7.642;2023-05-10T02:13:59;0.13;;;0.13;;
16506;SDS011;8366;51.020;7.642;2023-05-10T02:16:26;0.20;;;0.20;;
16506;SDS011;8366;51.020;7.642;2023-05-10T02:18:55;0.90;;;0.55;;
16506;SDS011;8366;51.020;7.642;2023-05-10T02:21:23;0.10;;;0.10;;
16506;SDS011;8366;51.020;7.642;2023-05-10T02:23:50;0.77;;;0.68;;
16506;SDS011;8366;51.020;7.642;2023-05-10T02:26:19;0.30;;;0.30;;
16506;SDS011;8366;51.020;7.642;2023-05-10T02:28:47;0.35;;;0.35;;
16506;SDS011;8366;51.020;7.642;2023-05-10T02:31:13;0.30;;;0.30;;
16506;SDS011;8366;51.020;7.642;2023-05-10T02:33:40;0.30;;;0.30;;
16506;SDS011;8366;51.020;7.642;2023-05-10T02:36:07;0.28;;;0.28;;
16506;SDS011;8366;51.020;7.642;2023-05-10T02:38:34;0.65;;;0.65;;
16506;SDS011;8366;51.020;7.642;2023-05-10T02:41:02;0.43;;;0.43;;
16506;SDS011;8366;51.020;7.642;2023-05-10T02:43:32;0.55;;;0.55;;
16506;SDS011;8366;51.020;7.642;2023-05-10T02:45:59;1.60;;;1.40;;
16506;SDS011;8366;51.020;7.642;2023-05-10T02:48:25;0.40;;;0.40;;
16506;SDS011;8366;51.020;7.642;2023-05-10T02:50:52;0.25;;;0.25;;
16506;SDS011;8366;51.020;7.642;2023-05-10T02:53:22;1.15;;;0.95;;
16506;SDS011;8366;51.020;7.642;2023-05-10T02:55:50;1.42;;;0.95;;
16506;SDS011;8366;51.020;7.642;2023-05-10T02:58:17;0.40;;;0.40;;
16506;SDS011;8366;51.020;7.642;2023-05-10T03:00:45;0.57;;;0.57;;
16506;SDS011;8366;51.020;7.642;2023-05-10T03:03:12;0.30;;;0.30;;
16506;SDS011;8366;51.020;7.642;2023-05-10T03:05:38;0.82;;;0.82;;
16506;SDS011;8366;51.020;7.642;2023-05-10T03:08:04;0.30;;;0.30;;
16506;SDS011;8366;51.020;7.642;2023-05-10T03:10:31;0.20;;;0.20;;
16506;SDS011;8366;51.020;7.642;2023-05-10T03:13:02;1.10;;;1.00;;
16506;SDS011;8366;51.020;7.642;2023-05-10T03:15:33;0.50;;;0.50;;
16506;SDS011;8366;51.020;7.642;2023-05-10T03:18:04;0.38;;;0.38;;
16506;SDS011;8366;51.020;7.642;2023-05-10T03:20:33;0.52;;;0.52;;
16506;SDS011;8366;51.020;7.642;2023-05-10T03:23:02;0.57;;;0.57;;
16506;SDS011;8366;51.020;7.642;2023-05-10T03:25:30;0.52;;;0.52;;
16506;SDS011;8366;51.020;7.642;2023-05-10T03:27:57;0.17;;;0.17;;
16506;SDS011;8366;51.020;7.642;2023-05-10T03:30:24;0.22;;;0.22;;
16506;SDS011;8366;51.020;7.642;2023-05-10T03:32:50;0.28;;;0.20;;
16506;SDS011;8366;51.020;7.642;2023-05-10T03:35:18;1.50;;;1.40;;
16506;SDS011;8366;51.020;7.642;2023-05-10T03:37:45;0.68;;;0.68;;
16506;SDS011;8366;51.020;7.642;2023-05-10T03:40:11;0.95;;;0.95;;
16506;SDS011;8366;51.020;7.642;2023-05-10T03:42:38;0.20;;;0.20;;
16506;SDS011;8366;51.020;7.642;2023-05-10T03:45:04;1.33;;;1.23;;
16506;SDS011;8366;51.020;7.642;2023-05-10T03:47:31;0.63;;;0.60;;
16506;SDS011;8366;51.020;7.642;2023-05-10T03:49:57;0.50;;;0.50;;
16506;SDS011;8366;51.020;7.642;2023-05-10T03:52:25;0.43;;;0.32;;
16506;SDS011;8366;51.020;7.642;2023-05-10T03:54:51;0.65;;;0.65;;
16506;SDS011;8366;51.020;7.642;2023-05-10T03:57:17;0.25;;;0.25;;
16506;SDS011;8366;51.020;7.642;2023-05-10T03:59:44;0.30;;;0.30;;
16506;SDS011;8366;51.020;7.642;2023-05-10T04:02:10;0.95;;;0.55;;
16506;SDS011;8366;51.020;7.642;2023-05-10T04:04:36;0.35;;;0.35;;
16506;SDS011;8366;51.020;7.642;2023-05-10T04:07:03;1.42;;;1.17;;
16506;SDS011;8366;51.020;7.642;2023-05-10T04:09:30;0.55;;;0.55;;
16506;SDS011;8366;51.020;7.642;2023-05-10T04:11:58;0.50;;;0.50;;
16506;SDS011;8366;51.020;7.642;2023-05-10T04:14:24;0.25;;;0.25;;
16506;SDS011;8366;51.020;7.642;2023-05-10T04:16:50;0.55;;;0.50;;
16506;SDS011;8366;51.020;7.642;2023-05-10T04:19:17;0.57;;;0.57;;
16506;SDS011;8366;51.020;7.642;2023-05-10T04:21:43;0.40;;;0.40;;
16506;SDS011;8366;51.020;7.642;2023-05-10T04:24:09;1.25;;;1.15;;
16506;SDS011;8366;51.020;7.642;2023-05-10T04:26:37;0.70;;;0.70;;
16506;SDS011;8366;51.020;7.642;2023-05-10T04:29:04;0.30;;;0.30;;
16506;SDS011;8366;51.020;7.642;2023-05-10T04:31:30;0.20;;;0.20;;
16506;SDS011;8366;51.020;7.642;2023-05-10T04:33:56;0.20;;;0.20;;
16506;SDS011;8366;51.020;7.642;2023-05-10T04:36:22;0.98;;;0.73;;
16506;SDS011;8366;51.020;7.642;2023-05-10T04:38:49;0.30;;;0.30;;
16506;SDS011;8366;51.020;7.642;2023-05-10T04:41:15;0.20;;;0.20;;
16506;SDS011;8366;51.020;7.642;2023-05-10T04:43:43;0.90;;;0.85;;
16506;SDS011;8366;51.020;7.642;2023-05-10T04:46:09;0.52;;;0.52;;
16506;SDS011;8366;51.020;7.642;2023-05-10T04:48:38;0.43;;;0.43;;
16506;SDS011;8366;51.020;7.642;2023-05-10T04:51:04;0.30;;;0.30;;
16506;SDS011;8366;51.020;7.642;2023-05-10T04:53:31;0.30;;;0.30;;
16506;SDS011;8366;51.020;7.642;2023-05-10T04:55:57;0.28;;;0.28;;
16506;SDS011;8366;51.020;7.642;2023-05-10T04:58:24;0.55;;;0.55;;
16506;SDS011;8366;51.020;7.642;2023-05-10T05:00:52;0.90;;;0.90;;
16506;SDS011;8366;51.020;7.642;2023-05-10T05:03:18;0.90;;;0.90;;
16506;SDS011;8366;51.020;7.642;2023-05-10T05:05:45;1.30;;;1.20;;
16506;SDS011;8366;51.020;7.642;2023-05-10T05:08:11;0.60;;;0.60;;
16506;SDS011;8366;51.020;7.642;2023-05-10T05:10:37;0.30;;;0.30;;
16506;SDS011;8366;51.020;7.642;2023-05-10T05:13:04;0.32;;;0.32;;
16506;SDS011;8366;51.020;7.642;2023-05-10T05:15:30;13.15;;;2.22;;
16506;SDS011;8366;51.020;7.642;2023-05-10T05:17:58;0.70;;;0.70;;
16506;SDS011;8366;51.020;7.642;2023-05-10T05:20:24;0.80;;;0.80;;
16506;SDS011;8366;51.020;7.642;2023-05-10T05:22:50;0.45;;;0.45;;
16506;SDS011;8366;51.020;7.642;2023-05-10T05:25:17;0.35;;;0.35;;
16506;SDS011;8366;51.020;7.642;2023-05-10T05:27:43;0.30;;;0.30;;
16506;SDS011;8366;51.020;7.642;2023-05-10T05:30:09;0.55;;;0.55;;
16506;SDS011;8366;51.020;7.642;2023-05-10T05:32:36;0.60;;;0.60;;
16506;SDS011;8366;51.020;7.642;2023-05-10T05:35:04;0.85;;;0.80;;
16506;SDS011;8366;51.020;7.642;2023-05-10T05:37:30;0.40;;;0.40;;
16506;SDS011;8366;51.020;7.642;2023-05-10T05:39:57;1.00;;;0.47;;
16506;SDS011;8366;51.020;7.642;2023-05-10T05:42:23;0.32;;;0.32;;
16506;SDS011;8366;51.020;7.642;2023-05-10T05:44:49;0.65;;;0.65;;
16506;SDS011;8366;51.020;7.642;2023-05-10T05:47:16;0.20;;;0.20;;
16506;SDS011;8366;51.020;7.642;2023-05-10T05:49:45;1.17;;;0.75;;
16506;SDS011;8366;51.020;7.642;2023-05-10T05:52:13;1.65;;;0.73;;
16506;SDS011;8366;51.020;7.642;2023-05-10T05:54:39;0.60;;;0.60;;
16506;SDS011;8366;51.020;7.642;2023-05-10T05:57:06;0.35;;;0.35;;
16506;SDS011;8366;51.020;7.642;2023-05-10T05:59:32;0.40;;;0.40;;
16506;SDS011;8366;51.020;7.642;2023-05-10T06:01:58;1.38;;;0.68;;
16506;SDS011;8366;51.020;7.642;2023-05-10T06:04:25;0.22;;;0.22;;
16506;SDS011;8366;51.020;7.642;2023-05-10T06:06:51;1.17;;;0.93;;
16506;SDS011;8366;51.020;7.642;2023-05-10T06:09:19;0.52;;;0.52;;
16506;SDS011;8366;51.020;7.642;2023-05-10T06:11:45;0.75;;;0.60;;
16506;SDS011;8366;51.020;7.642;2023-05-10T06:14:12;0.90;;;0.70;;
16506;SDS011;8366;51.020;7.642;2023-05-10T06:16:39;0.47;;;0.47;;
16506;SDS011;8366;51.020;7.642;2023-05-10T06:19:05;0.75;;;0.63;;
16506;SDS011;8366;51.020;7.642;2023-05-10T06:21:32;0.82;;;0.82;;
16506;SDS011;8366;51.020;7.642;2023-05-10T06:23:58;0.63;;;0.63;;
16506;SDS011;8366;51.020;7.642;2023-05-10T06:26:26;0.73;;;0.70;;
16506;SDS011;8366;51.020;7.642;2023-05-10T06:28:52;0.35;;;0.30;;
16506;SDS011;8366;51.020;7.642;2023-05-10T06:31:19;1.40;;;1.27;;
16506;SDS011;8366;51.020;7.642;2023-05-10T06:33:45;0.60;;;0.60;;
16506;SDS011;8366;51.020;7.642;2023-05-10T06:36:12;0.85;;;0.75;;
16506;SDS011;8366;51.020;7.642;2023-05-10T06:38:38;0.50;;;0.50;;
16506;SDS011;8366;51.020;7.642;2023-05-10T06:41:05;0.63;;;0.63;;
16506;SDS011;8366;51.020;7.642;2023-05-10T06:43:33;0.40;;;0.40;;
16506;SDS011;8366;51.020;7.642;2023-05-10T06:45:59;0.98;;;0.85;;
16506;SDS011;8366;51.020;7.642;2023-05-10T06:48:26;0.20;;;0.20;;
16506;SDS011;8366;51.020;7.642;2023-05-10T06:50:52;0.20;;;0.17;;
16506;SDS011;8366;51.020;7.642;2023-05-10T06:53:18;0.65;;;0.65;;
16506;SDS011;8366;51.020;7.642;2023-05-10T06:55:45;0.15;;;0.15;;
16506;SDS011;8366;51.020;7.642;2023-05-10T06:58:11;1.52;;;0.88;;
16506;SDS011;8366;51.020;7.642;2023-05-10T07:00:39;1.13;;;1.13;;
16506;SDS011;8366;51.020;7.642;2023-05-10T07:03:09;1.02;;;0.90;;
16506;SDS011;8366;51.020;7.642;2023-05-10T07:05:35;0.88;;;0.50;;
16506;SDS011;8366;51.020;7.642;2023-05-10T07:08:02;1.20;;;0.73;;
16506;SDS011;8366;51.020;7.642;2023-05-10T07:10:28;1.92;;;1.70;;
16506;SDS011;8366;51.020;7.642;2023-05-10T07:12:55;1.40;;;1.30;;
16506;SDS011;8366;51.020;7.642;2023-05-10T07:15:21;0.32;;;0.32;;
16506;SDS011;8366;51.020;7.642;2023-05-10T07:17:49;0.50;;;0.50;;
16506;SDS011;8366;51.020;7.642;2023-05-10T07:20:16;2.38;;;2.17;;
16506;SDS011;8366;51.020;7.642;2023-05-10T07:22:43;1.60;;;1.50;;
16506;SDS011;8366;51.020;7.642;2023-05-10T07:25:10;1.88;;;0.50;;
16506;SDS011;8366;51.020;7.642;2023-05-10T07:27:37;1.00;;;1.00;;
16506;SDS011;8366;51.020;7.642;2023-05-10T07:30:05;1.83;;;1.73;;
16506;SDS011;8366;51.020;7.642;2023-05-10T07:32:32;6.53;;;2.40;;
16506;SDS011;8366;51.020;7.642;2023-05-10T07:34:59;2.53;;;2.33;;
16506;SDS011;8366;51.020;7.642;2023-05-10T07:37:26;12.40;;;1.23;;
16506;SDS011;8366;51.020;7.642;2023-05-10T07:39:52;0.50;;;0.50;;
16506;SDS011;8366;51.020;7.642;2023-05-10T07:42:18;1.23;;;1.13;;
16506;SDS011;8366;51.020;7.642;2023-05-10T07:44:45;1.55;;;1.45;;
16506;SDS011;8366;51.020;7.642;2023-05-10T07:47:12;1.45;;;1.35;;
16506;SDS011;8366;51.020;7.642;2023-05-10T07:49:38;3.60;;;2.20;;
16506;SDS011;8366;51.020;7.642;2023-05-10T07:52:06;6.75;;;1.73;;
16506;SDS011;8366;51.020;7.642;2023-05-10T07:54:32;2.72;;;1.48;;
16506;SDS011;8366;51.020;7.642;2023-05-10T07:56:59;1.05;;;0.98;;
16506;SDS011;8366;51.020;7.642;2023-05-10T07:59:25;2.55;;;1.45;;
16506;SDS011;8366;51.020;7.642;2023-05-10T08:01:52;2.63;;;2.42;;
16506;SDS011;8366;51.020;7.642;2023-05-10T08:04:18;3.28;;;3.08;;
16506;SDS011;8366;51.020;7.642;2023-05-10T08:06:44;2.35;;;1.77;;
16506;SDS011;8366;51.020;7.642;2023-05-10T08:09:12;1.95;;;1.77;;
16506;SDS011;8366;51.020;7.642;2023-05-10T08:11:39;2.55;;;1.85;;
16506;SDS011;8366;51.020;7.642;2023-05-10T08:14:05;1.60;;;1.50;;
16506;SDS011;8366;51.020;7.642;2023-05-10T08:16:32;0.63;;;0.63;;
16506;SDS011;8366;51.020;7.642;2023-05-10T08:19:08;1.70;;;1.60;;
16506;SDS011;8366;51.020;7.642;2023-05-10T08:21:34;8.27;;;2.22;;
16506;SDS011;8366;51.020;7.642;2023-05-10T08:24:01;3.90;;;1.70;;
16506;SDS011;8366;51.020;7.642;2023-05-10T08:26:28;2.40;;;2.17;;
16506;SDS011;8366;51.020;7.642;2023-05-10T08:28:55;3.65;;;1.98;;
16506;SDS011;8366;51.020;7.642;2023-05-10T08:31:21;3.03;;;2.63;;
16506;SDS011;8366;51.020;7.642;2023-05-10T08:33:47;2.67;;;2.08;;
16506;SDS011;8366;51.020;7.642;2023-05-10T08:36:14;7.60;;;2.75;;
16506;SDS011;8366;51.020;7.642;2023-05-10T08:38:44;3.05;;;2.28;;
16506;SDS011;8366;51.020;7.642;2023-05-10T08:41:11;2.88;;;2.42;;
16506;SDS011;8366;51.020;7.642;2023-05-10T08:43:38;3.80;;;2.45;;
16506;SDS011;8366;51.020;7.642;2023-05-10T08:46:06;2.10;;;1.63;;
16506;SDS011;8366;51.020;7.642;2023-05-10T08:48:34;1.75;;;1.65;;
16506;SDS011;8366;51.020;7.642;2023-05-10T08:51:00;1.80;;;1.70;;
16506;SDS011;8366;51.020;7.642;2023-05-10T08:53:27;2.15;;;1.33;;
16506;SDS011;8366;51.020;7.642;2023-05-10T08:55:54;2.28;;;2.08;;
16506;SDS011;8366;51.020;7.642;2023-05-10T08:58:24;2.45;;;2.25;;
16506;SDS011;8366;51.020;7.642;2023-05-10T09:00:52;2.13;;;2.03;;
16506;SDS011;8366;51.020;7.642;2023-05-10T09:03:19;1.85;;;1.75;;
16506;SDS011;8366;51.020;7.642;2023-05-10T09:05:45;2.92;;;1.52;;
16506;SDS011;8366;51.020;7.642;2023-05-10T09:08:12;0.88;;;0.88;;
16506;SDS011;8366;51.020;7.642;2023-05-10T09:10:41;1.98;;;1.80;;
16506;SDS011;8366;51.020;7.642;2023-05-10T09:13:08;1.70;;;1.63;;
16506;SDS011;8366;51.020;7.642;2023-05-10T09:15:35;1.45;;;1.35;;
16506;SDS011;8366;51.020;7.642;2023-05-10T09:18:03;1.10;;;1.00;;
16506;SDS011;8366;51.020;7.642;2023-05-10T09:20:30;0.45;;;0.45;;
16506;SDS011;8366;51.020;7.642;2023-05-10T09:22:56;0.80;;;0.50;;
16506;SDS011;8366;51.020;7.642;2023-05-10T09:25:22;0.80;;;0.80;;
16506;SDS011;8366;51.020;7.642;2023-05-10T09:27:49;1.23;;;1.20;;
16506;SDS011;8366;51.020;7.642;2023-05-10T09:30:15;2.30;;;1.27;;
16506;SDS011;8366;51.020;7.642;2023-05-10T09:32:43;0.50;;;0.50;;
16506;SDS011;8366;51.020;7.642;2023-05-10T09:35:11;0.40;;;0.40;;
16506;SDS011;8366;51.020;7.642;2023-05-10T09:37:38;1.08;;;0.98;;
16506;SDS011;8366;51.020;7.642;2023-05-10T09:40:07;0.50;;;0.50;;
16506;SDS011;8366;51.020;7.642;2023-05-10T09:42:33;0.80;;;0.80;;
16506;SDS011;8366;51.020;7.642;2023-05-10T09:45:01;0.65;;;0.65;;
16506;SDS011;8366;51.020;7.642;2023-05-10T09:47:28;0.60;;;0.60;;
16506;SDS011;8366;51.020;7.642;2023-05-10T09:49:55;2.95;;;0.70;;
16506;SDS011;8366;51.020;7.642;2023-05-10T09:52:29;0.77;;;0.77;;
16506;SDS011;8366;51.020;7.642;2023-05-10T09:54:55;2.95;;;1.42;;
16506;SDS011;8366;51.020;7.642;2023-05-10T09:57:22;0.52;;;0.52;;
16506;SDS011;8366;51.020;7.642;2023-05-10T09:59:49;2.67;;;1.67;;
16506;SDS011;8366;51.020;7.642;2023-05-10T10:02:15;3.10;;;1.45;;
16506;SDS011;8366;51.020;7.642;2023-05-10T10:04:42;2.80;;;1.55;;
16506;SDS011;8366;51.020;7.642;2023-05-10T10:07:08;0.50;;;0.50;;
16506;SDS011;8366;51.020;7.642;2023-05-10T10:09:36;1.63;;;1.52;;
16506;SDS011;8366;51.020;7.642;2023-05-10T10:12:02;0.40;;;0.40;;
16506;SDS011;8366;51.020;7.642;2023-05-10T10:14:29;1.10;;;1.08;;
16506;SDS011;8366;51.020;7.642;2023-05-10T10:16:56;0.73;;;0.73;;
16506;SDS011;8366;51.020;7.642;2023-05-10T10:19:22;0.90;;;0.90;;
16506;SDS011;8366;51.020;7.642;2023-05-10T10:21:49;7.68;;;0.65;;
16506;SDS011;8366;51.020;7.642;2023-05-10T10:24:16;1.65;;;0.68;;
16506;SDS011;8366;51.020;7.642;2023-05-10T10:26:43;1.42;;;1.33;;
16506;SDS011;8366;51.020;7.642;2023-05-10T10:29:15;1.10;;;1.05;;
16506;SDS011;8366;51.020;7.642;2023-05-10T10:31:45;1.38;;;1.27;;
16506;SDS011;8366;51.020;7.642;2023-05-10T10:34:17;0.75;;;0.63;;
16506;SDS011;8366;51.020;7.642;2023-05-10T10:36:47;1.58;;;1.48;;
16506;SDS011;8366;51.020;7.642;2023-05-10T10:39:14;0.40;;;0.40;;
16506;SDS011;8366;51.020;7.642;2023-05-10T10:41:48;4.00;;;0.65;;
16506;SDS011;8366;51.020;7.642;2023-05-10T10:44:35;1.30;;;1.08;;
16506;SDS011;8366;51.020;7.642;2023-05-10T10:47:04;1.08;;;0.75;;
16506;SDS011;8366;51.020;7.642;2023-05-10T10:49:36;0.32;;;0.30;;
16506;SDS011;8366;51.020;7.642;2023-05-10T10:52:13;0.20;;;0.20;;
16506;SDS011;8366;51.020;7.642;2023-05-10T10:54:39;0.28;;;0.28;;
16506;SDS011;8366;51.020;7.642;2023-05-10T10:57:10;0.17;;;0.17;;
16506;SDS011;8366;51.020;7.642;2023-05-10T10:59:42;0.10;;;0.10;;
16506;SDS011;8366;51.020;7.642;2023-05-10T11:02:09;1.23;;;0.60;;
16506;SDS011;8366;51.020;7.642;2023-05-10T11:04:41;0.90;;;0.82;;
16506;SDS011;8366;51.020;7.642;2023-05-10T11:07:17;0.40;;;0.40;;
16506;SDS011;8366;51.020;7.642;2023-05-10T11:09:44;0.82;;;0.82;;
16506;SDS011;8366;51.020;7.642;2023-05-10T11:12:10;0.68;;;0.63;;
16506;SDS011;8366;51.020;7.642;2023-05-10T11:14:37;0.40;;;0.40;;
16506;SDS011;8366;51.020;7.642;2023-05-10T11:17:18;1.02;;;0.30;;
16506;SDS011;8366;51.020;7.642;2023-05-10T11:20:02;2.92;;;0.50;;
16506;SDS011;8366;51.020;7.642;2023-05-10T11:22:29;0.43;;;0.43;;
16506;SDS011;8366;51.020;7.642;2023-05-10T11:25:14;5.32;;;0.88;;
16506;SDS011;8366;51.020;7.642;2023-05-10T11:27:41;0.40;;;0.30;;
16506;SDS011;8366;51.020;7.642;2023-05-10T11:30:08;0.73;;;0.68;;
16506;SDS011;8366;51.020;7.642;2023-05-10T11:32:37;0.75;;;0.65;;
16506;SDS011;8366;51.020;7.642;2023-05-10T11:35:06;0.38;;;0.38;;
16506;SDS011;8366;51.020;7.642;2023-05-10T11:37:32;0.75;;;0.57;;
16506;SDS011;8366;51.020;7.642;2023-05-10T11:39:59;0.50;;;0.50;;
16506;SDS011;8366;51.020;7.642;2023-05-10T11:42:27;0.35;;;0.35;;
16506;SDS011;8366;51.020;7.642;2023-05-10T11:44:53;0.75;;;0.75;;
16506;SDS011;8366;51.020;7.642;2023-05-10T11:47:20;1.05;;;0.85;;
16506;SDS011;8366;51.020;7.642;2023-05-10T11:49:47;0.20;;;0.20;;
16506;SDS011;8366;51.020;7.642;2023-05-10T11:52:15;0.60;;;0.60;;
16506;SDS011;8366;51.020;7.642;2023-05-10T11:54:44;4.72;;;1.45;;
16506;SDS011;8366;51.020;7.642;2023-05-10T11:57:11;0.47;;;0.47;;
16506;SDS011;8366;51.020;7.642;2023-05-10T11:59:38;1.55;;;1.15;;
16506;SDS011;8366;51.020;7.642;2023-05-10T12:02:04;1.52;;;1.42;;
16506;SDS011;8366;51.020;7.642;2023-05-10T12:04:30;1.08;;;0.95;;
16506;SDS011;8366;51.020;7.642;2023-05-10T12:06:58;1.33;;;1.15;;
16506;SDS011;8366;51.020;7.642;2023-05-10T12:09:25;0.95;;;0.95;;
16506;SDS011;8366;51.020;7.642;2023-05-10T12:11:54;7.15;;;2.60;;
16506;SDS011;8366;51.020;7.642;2023-05-10T12:14:21;0.90;;;0.88;;
16506;SDS011;8366;51.020;7.642;2023-05-10T12:16:49;3.17;;;1.60;;
16506;SDS011;8366;51.020;7.642;2023-05-10T12:19:19;0.82;;;0.82;;
16506;SDS011;8366;51.020;7.642;2023-05-10T12:21:46;1.05;;;1.05;;
16506;SDS011;8366;51.020;7.642;2023-05-10T12:24:14;1.73;;;1.15;;
16506;SDS011;8366;51.020;7.642;2023-05-10T12:26:42;1.35;;;1.25;;
16506;SDS011;8366;51.020;7.642;2023-05-10T12:29:12;1.45;;;1.20;;
16506;SDS011;8366;51.020;7.642;2023-05-10T12:31:48;3.60;;;1.52;;
16506;SDS011;8366;51.020;7.642;2023-05-10T12:34:22;3.60;;;1.23;;
16506;SDS011;8366;51.020;7.642;2023-05-10T12:36:49;0.63;;;0.40;;
16506;SDS011;8366;51.020;7.642;2023-05-10T12:39:17;2.60;;;2.22;;
16506;SDS011;8366;51.020;7.642;2023-05-10T12:41:43;1.38;;;0.43;;
16506;SDS011;8366;51.020;7.642;2023-05-10T12:44:10;1.50;;;1.42;;
16506;SDS011;8366;51.020;7.642;2023-05-10T12:46:36;1.75;;;1.67;;
16506;SDS011;8366;51.020;7.642;2023-05-10T12:49:03;1.75;;;1.65;;
16506;SDS011;8366;51.020;7.642;2023-05-10T12:51:29;2.13;;;1.65;;
16506;SDS011;8366;51.020;7.642;2023-05-10T12:53:55;4.45;;;1.83;;
16506;SDS011;8366;51.020;7.642;2023-05-10T12:56:23;1.27;;;1.20;;
16506;SDS011;8366;51.020;7.642;2023-05-10T12:58:49;2.40;;;2.20;;
16506;SDS011;8366;51.020;7.642;2023-05-10T13:01:16;1.63;;;1.20;;
16506;SDS011;8366;51.020;7.642;2023-05-10T13:03:42;4.97;;;1.10;;
16506;SDS011;8366;51.020;7.642;2023-05-10T13:06:09;4.40;;;1.65;;
16506;SDS011;8366;51.020;7.642;2023-05-10T13:08:35;2.72;;;1.55;;
16506;SDS011;8366;51.020;7.642;2023-05-10T13:11:02;0.63;;;0.63;;
16506;SDS011;8366;51.020;7.642;2023-05-10T13:13:30;1.55;;;1.40;;
16506;SDS011;8366;51.020;7.642;2023-05-10T13:15:56;2.08;;;1.98;;
16506;SDS011;8366;51.020;7.642;2023-05-10T13:18:22;2.95;;;1.45;;
16506;SDS011;8366;51.020;7.642;2023-05-10T13:20:49;1.15;;;1.10;;
16506;SDS011;8366;51.020;7.642;2023-05-10T13:23:15;1.35;;;1.25;;
16506;SDS011;8366;51.020;7.642;2023-05-10T13:25:42;0.95;;;0.95;;
16506;SDS011;8366;51.020;7.642;2023-05-10T13:28:08;2.30;;;2.13;;
16506;SDS011;8366;51.020;7.642;2023-05-10T13:30:42;0.60;;;0.60;;
16506;SDS011;8366;51.020;7.642;2023-05-10T13:33:08;1.55;;;1.45;;
16506;SDS011;8366;51.020;7.642;2023-05-10T13:35:35;0.95;;;0.82;;
16506;SDS011;8366;51.020;7.642;2023-05-10T13:38:01;1.58;;;1.55;;
16506;SDS011;8366;51.020;7.642;2023-05-10T13:40:33;1.77;;;1.65;;
16506;SDS011;8366;51.020;7.642;2023-05-10T13:43:01;0.85;;;0.85;;
16506;SDS011;8366;51.020;7.642;2023-05-10T13:45:28;1.98;;;1.02;;
16506;SDS011;8366;51.020;7.642;2023-05-10T13:47:55;1.52;;;1.45;;
16506;SDS011;8366;51.020;7.642;2023-05-10T13:50:22;3.95;;;1.95;;
16506;SDS011;8366;51.020;7.642;2023-05-10T13:52:48;1.50;;;1.40;;
16506;SDS011;8366;51.020;7.642;2023-05-10T13:55:14;1.73;;;1.02;;
16506;SDS011;8366;51.020;7.642;2023-05-10T13:57:41;2.00;;;1.67;;
16506;SDS011;8366;51.020;7.642;2023-05-10T14:00:08;1.85;;;0.82;;
16506;SDS011;8366;51.020;7.642;2023-05-10T14:02:34;1.58;;;1.48;;
16506;SDS011;8366;51.020;7.642;2023-05-10T14:05:03;3.58;;;1.67;;
16506;SDS011;8366;51.020;7.642;2023-05-10T14:07:29;2.63;;;1.48;;
16506;SDS011;8366;51.020;7.642;2023-05-10T14:09:55;1.27;;;1.13;;
16506;SDS011;8366;51.020;7.642;2023-05-10T14:12:22;1.17;;;1.10;;
16506;SDS011;8366;51.020;7.642;2023-05-10T14:14:48;0.60;;;0.40;;
16506;SDS011;8366;51.020;7.642;2023-05-10T14:17:14;9.27;;;1.38;;
16506;SDS011;8366;51.020;7.642;2023-05-10T14:19:41;1.92;;;1.83;;
16506;SDS011;8366;51.020;7.642;2023-05-10T14:22:08;2.25;;;1.20;;
16506;SDS011;8366;51.020;7.642;2023-05-10T14:24:35;0.70;;;0.70;;
16506;SDS011;8366;51.020;7.642;2023-05-10T14:27:01;7.18;;;1.38;;
16506;SDS011;8366;51.020;7.642;2023-05-10T14:29:27;1.73;;;1.45;;
16506;SDS011;8366;51.020;7.642;2023-05-10T14:31:54;1.48;;;1.15;;
16506;SDS011;8366;51.020;7.642;2023-05-10T14:34:20;3.15;;;2.15;;
16506;SDS011;8366;51.020;7.642;2023-05-10T14:36:46;1.77;;;1.55;;
16506;SDS011;8366;51.020;7.642;2023-05-10T14:39:14;0.98;;;0.95;;
16506;SDS011;8366;51.020;7.642;2023-05-10T14:41:40;1.35;;;0.68;;
16506;SDS011;8366;51.020;7.642;2023-05-10T14:44:07;2.63;;;1.58;;
16506;SDS011;8366;51.020;7.642;2023-05-10T14:46:34;0.63;;;0.63;;
16506;SDS011;8366;51.020;7.642;2023-05-10T14:49:01;1.25;;;1.25;;
16506;SDS011;8366;51.020;7.642;2023-05-10T14:51:27;1.33;;;1.25;;
16506;SDS011;8366;51.020;7.642;2023-05-10T14:53:53;2.42;;;1.00;;
16506;SDS011;8366;51.020;7.642;2023-05-10T14:56:21;2.17;;;1.35;;
16506;SDS011;8366;51.020;7.642;2023-05-10T14:58:49;1.30;;;1.13;;
16506;SDS011;8366;51.020;7.642;2023-05-10T15:01:15;0.93;;;0.93;;
16506;SDS011;8366;51.020;7.642;2023-05-10T15:03:41;3.75;;;2.08;;